Time;durP1;ratioP1;P1;durP2;ratioP2;P2;SDS_P1;SDS_P2;PMS_P1;PMS_P2;Temp;Humidity;BMP_temperature;BMP_pressure;BME280_temperature;BME280_humidity;BME280_pressure;Samples;Min_cycle;Max_cycle;Signal;HPM_P1;HPM_P2
2021/01/23 00:03:50;;;;;;;20.20;14.30;;;;;;;4.42;87.18;98549.75;5872054;23;20323;-83
2021/01/23 00:06:18;;;;;;;21.15;14.55;;;;;;;4.41;87.46;98547.19;4914335;29;20071;-83
2021/01/23 00:08:44;;;;;;;22.83;15.20;;;;;;;4.43;86.86;98554.06;4911527;29;20048;-80
2021/01/23 00:11:13;;;;;;;20.63;14.32;;;;;;;4.45;86.48;98549.59;4915175;29;20160;-80
2021/01/23 00:13:40;;;;;;;21.63;15.55;;;;;;;4.48;86.86;98554.69;4935675;29;20055;-80
2021/01/23 00:16:06;;;;;;;23.92;16.20;;;;;;;4.53;86.67;98554.47;4913115;29;20512;-82
2021/01/23 00:18:32;;;;;;;23.65;16.52;;;;;;;4.54;86.66;98551.75;4924294;29;20052;-80
2021/01/23 00:20:59;;;;;;;23.40;16.48;;;;;;;4.53;86.89;98551.84;4908445;29;20050;-81
2021/01/23 00:23:25;;;;;;;22.60;16.38;;;;;;;4.59;86.79;98552.34;4930432;29;20052;-80
2021/01/23 00:25:51;;;;;;;24.58;17.25;;;;;;;4.64;86.77;98557.34;4927140;29;20055;-81
2021/01/23 00:28:19;;;;;;;24.60;17.10;;;;;;;4.60;86.65;98555.81;4918979;29;20056;-82
2021/01/23 00:30:46;;;;;;;25.77;17.10;;;;;;;4.66;86.32;98559.91;4897219;29;20060;-81
2021/01/23 00:33:12;;;;;;;24.98;16.30;;;;;;;4.68;86.12;98560.69;4901507;29;20059;-81
2021/01/23 00:35:40;;;;;;;23.48;16.38;;;;;;;4.70;85.95;98566.69;4900835;29;20056;-82
2021/01/23 00:38:07;;;;;;;27.42;17.58;;;;;;;4.64;86.67;98575.72;4921043;29;20150;-81
2021/01/23 00:40:33;;;;;;;25.10;17.27;;;;;;;4.61;87.26;98580.25;4911751;29;20101;-83
2021/01/23 00:43:00;;;;;;;26.33;17.42;;;;;;;4.56;87.27;98591.00;4907830;29;20048;-81
2021/01/23 00:45:26;;;;;;;29.05;18.73;;;;;;;4.55;87.72;98587.53;4911991;29;20149;-82
2021/01/23 00:47:52;;;;;;;28.45;18.67;;;;;;;4.60;87.68;98603.00;4922394;29;20052;-81
2021/01/23 00:50:19;;;;;;;26.55;18.42;;;;;;;4.58;88.04;98595.22;4920565;29;20045;-81
2021/01/23 00:52:45;;;;;;;28.15;17.80;;;;;;;4.49;87.66;98592.22;4930944;29;20080;-82
2021/01/23 00:55:13;;;;;;;28.60;18.02;;;;;;;4.51;88.16;98601.72;4923643;29;20048;-80
2021/01/23 00:57:40;;;;;;;26.58;17.92;;;;;;;4.48;88.33;98604.47;4902303;29;20063;-81
2021/01/23 01:00:07;;;;;;;25.55;16.33;;;;;;;4.43;88.04;98606.47;4913380;29;20049;-82
2021/01/23 01:02:34;;;;;;;25.83;16.48;;;;;;;4.45;88.21;98609.03;4903133;29;20048;-81
2021/01/23 01:05:00;;;;;;;23.17;16.42;;;;;;;4.49;88.04;98608.81;4898187;29;20397;-82
2021/01/23 01:07:27;;;;;;;23.08;15.77;;;;;;;4.46;87.92;98611.56;4907733;29;20091;-82
2021/01/23 01:09:53;;;;;;;24.83;15.55;;;;;;;4.43;87.94;98608.25;4914805;29;20123;-82
2021/01/23 01:12:20;;;;;;;20.67;14.77;;;;;;;4.43;87.91;98611.72;4917888;29;20052;-80
2021/01/23 01:14:46;;;;;;;23.60;15.82;;;;;;;4.46;87.42;98608.09;4915015;29;20138;-82
2021/01/23 01:17:13;;;;;;;24.92;15.50;;;;;;;4.42;87.53;98607.41;4919928;29;20067;-82
2021/01/23 01:19:41;;;;;;;21.70;15.02;;;;;;;4.46;88.15;98616.81;4901512;29;20557;-80
2021/01/23 01:22:08;;;;;;;22.15;15.43;;;;;;;4.46;87.02;98611.56;4915840;29;20563;-83
2021/01/23 01:24:34;;;;;;;23.52;14.98;;;;;;;4.44;87.20;98609.94;4914123;29;20070;-82
2021/01/23 01:27:00;;;;;;;23.92;15.30;;;;;;;4.41;87.21;98610.94;4902961;29;20048;-83
2021/01/23 01:29:27;;;;;;;20.33;14.18;;;;;;;4.49;86.82;98621.06;4912274;29;20056;-84
2021/01/23 01:31:54;;;;;;;24.05;15.52;;;;;;;4.50;86.92;98628.00;4908947;29;20040;-82
2021/01/23 01:34:20;;;;;;;20.58;14.85;;;;;;;4.48;86.90;98622.81;4898743;29;20063;-83
2021/01/23 01:36:46;;;;;;;23.90;15.80;;;;;;;4.43;86.69;98623.97;4900948;29;20055;-83
2021/01/23 01:39:13;;;;;;;22.17;14.82;;;;;;;4.43;87.26;98618.72;4922753;29;20417;-83
2021/01/23 01:41:40;;;;;;;28.50;15.98;;;;;;;4.44;87.11;98629.16;4925439;29;20048;-83
2021/01/23 01:44:07;;;;;;;23.83;16.42;;;;;;;4.51;87.31;98630.53;4907060;29;20056;-82
2021/01/23 01:46:38;;;;;;;23.73;15.25;;;;;;;4.55;87.08;98626.00;4915178;29;20052;-82
2021/01/23 01:49:06;;;;;;;22.15;15.18;;;;;;;4.59;86.13;98627.53;4914897;29;20058;-82
2021/01/23 01:51:33;;;;;;;23.48;15.35;;;;;;;4.65;86.21;98626.38;4922603;29;20536;-82
2021/01/23 01:54:00;;;;;;;23.85;15.55;;;;;;;4.62;85.73;98621.28;4923734;29;20052;-82
2021/01/23 01:56:27;;;;;;;24.13;15.52;;;;;;;4.66;85.29;98628.06;4924825;29;20528;-83
2021/01/23 01:58:53;;;;;;;23.40;14.85;;;;;;;4.67;85.55;98632.38;4917885;29;20048;-82
2021/01/23 02:01:19;;;;;;;22.55;15.00;;;;;;;4.68;84.65;98636.72;4913415;29;20047;-82
2021/01/23 02:04:14;;;;;;;20.38;14.00;;;;;;;4.76;83.72;98639.78;4920660;29;20470;-83
2021/01/23 02:06:49;;;;;;;22.10;13.98;;;;;;;4.76;84.06;98632.75;4923892;29;20044;-83
2021/01/23 02:09:24;;;;;;;18.95;13.13;;;;;;;4.78;83.09;98630.06;4926542;29;20058;-82
2021/01/23 02:12:10;;;;;;;18.90;13.07;;;;;;;4.77;82.95;98633.59;4920413;29;20062;-80
2021/01/23 02:15:17;;;;;;;19.58;12.38;;;;;;;4.78;82.54;98643.16;4929566;29;20100;-79
2021/01/23 02:17:47;;;;;;;20.73;12.85;;;;;;;4.78;82.66;98646.63;4926257;29;20071;-81
2021/01/23 02:20:36;;;;;;;19.15;12.43;;;;;;;4.75;82.77;98646.78;4922671;29;20108;-81
2021/01/23 02:23:15;;;;;;;17.00;11.75;;;;;;;4.74;82.88;98650.34;4907319;29;20055;-82
2021/01/23 02:26:04;;;;;;;20.33;12.68;;;;;;;4.71;82.71;98644.41;4922955;29;20458;-80
2021/01/23 02:28:50;;;;;;;19.50;12.60;;;;;;;4.70;83.08;98650.59;4921280;29;20595;-82
2021/01/23 02:31:19;;;;;;;20.88;13.07;;;;;;;4.70;82.47;98658.47;4908715;29;20040;-84
2021/01/23 02:33:49;;;;;;;20.15;12.55;;;;;;;4.67;83.00;98655.97;4922807;29;20044;-84
2021/01/23 02:36:18;;;;;;;18.70;13.48;;;;;;;4.66;82.64;98654.28;4923437;29;20067;-80
2021/01/23 02:38:45;;;;;;;21.27;13.15;;;;;;;4.64;82.96;98650.88;4898071;29;20052;-82
2021/01/23 02:41:13;;;;;;;24.40;13.85;;;;;;;4.63;83.44;98655.28;4921847;29;20052;-83
2021/01/23 02:43:45;;;;;;;22.05;13.60;;;;;;;4.62;83.08;98663.22;4921314;29;20075;-83
2021/01/23 02:46:14;;;;;;;19.75;12.63;;;;;;;4.65;83.12;98665.69;4902364;29;20052;-82
2021/01/23 02:48:42;;;;;;;16.80;11.93;;;;;;;4.64;83.59;98662.22;4914757;29;20857;-83
2021/01/23 02:51:30;;;;;;;19.02;12.68;;;;;;;4.61;83.25;98661.53;4904217;29;20198;-82
2021/01/23 02:54:06;;;;;;;18.52;12.23;;;;;;;4.62;83.23;98678.94;4929372;29;20056;-83
2021/01/23 02:56:33;;;;;;;16.48;11.73;;;;;;;4.58;83.22;98670.38;4925675;29;20063;-82
2021/01/23 02:59:05;;;;;;;18.75;12.52;;;;;;;4.61;83.14;98683.34;4929901;29;20044;-84
2021/01/23 03:01:37;;;;;;;18.33;10.90;;;;;;;4.65;83.51;98694.53;4922251;29;20797;-81
2021/01/23 03:04:04;;;;;;;16.00;10.75;;;;;;;4.65;82.91;98694.53;4913873;29;20064;-83
2021/01/23 03:06:31;;;;;;;15.40;11.13;;;;;;;4.62;82.87;98690.28;4923813;29;20130;-82
2021/01/23 03:08:58;;;;;;;16.73;11.52;;;;;;;4.58;83.04;98697.44;4920738;29;20044;-82
2021/01/23 03:11:24;;;;;;;20.73;11.75;;;;;;;4.53;83.02;98691.59;4925495;29;20055;-82
2021/01/23 03:13:51;;;;;;;17.17;11.95;;;;;;;4.55;83.34;98697.63;4914647;29;20066;-84
2021/01/23 03:16:17;;;;;;;14.82;11.13;;;;;;;4.52;83.37;98694.31;4912508;29;20055;-82
2021/01/23 03:18:45;;;;;;;17.98;11.43;;;;;;;4.54;83.76;98706.41;4930150;29;20047;-82
2021/01/23 03:21:11;;;;;;;17.90;10.50;;;;;;;4.60;83.10;98707.88;4934043;29;20063;-83
2021/01/23 03:23:38;;;;;;;17.42;10.50;;;;;;;4.54;82.71;98692.47;4920886;29;20040;-83
2021/01/23 03:26:04;;;;;;;17.83;10.57;;;;;;;4.54;83.00;98709.03;4934089;29;20055;-84
2021/01/23 03:28:30;;;;;;;16.10;10.00;;;;;;;4.54;83.18;98708.19;4934926;29;20049;-83
2021/01/23 03:30:57;;;;;;;15.65;10.82;;;;;;;4.56;83.14;98717.66;4936485;29;20038;-83
2021/01/23 03:33:23;;;;;;;16.85;9.75;;;;;;;4.58;82.63;98721.03;4936899;29;20082;-82
2021/01/23 03:35:50;;;;;;;13.57;9.70;;;;;;;4.61;82.28;98720.03;4930582;29;20143;-83
2021/01/23 03:38:16;;;;;;;14.10;9.50;;;;;;;4.58;82.66;98721.03;4916762;29;20044;-82
2021/01/23 03:40:43;;;;;;;15.23;9.27;;;;;;;4.64;82.32;98732.16;4919472;29;20044;-81
2021/01/23 03:43:09;;;;;;;12.02;8.68;;;;;;;4.58;82.19;98726.28;4905382;29;20606;-82
2021/01/23 03:45:35;;;;;;;16.25;9.15;;;;;;;4.57;82.70;98724.59;4920415;29;20057;-81
2021/01/23 03:48:02;;;;;;;15.23;9.38;;;;;;;4.57;82.46;98737.69;4932264;29;20040;-80
2021/01/23 03:50:29;;;;;;;15.13;9.10;;;;;;;4.57;82.82;98731.59;4936691;29;20056;-81
2021/01/23 03:52:55;;;;;;;14.50;9.20;;;;;;;4.53;82.72;98725.69;4924176;29;20052;-81
2021/01/23 03:55:21;;;;;;;16.25;9.35;;;;;;;4.52;82.85;98731.00;4903179;29;20072;-83
2021/01/23 03:57:48;;;;;;;11.77;8.88;;;;;;;4.53;83.21;98732.69;4905052;29;20056;-82
2021/01/23 04:00:15;;;;;;;12.85;9.02;;;;;;;4.45;83.40;98730.44;4902667;29;20059;-82
2021/01/23 04:02:43;;;;;;;14.68;9.85;;;;;;;4.42;83.25;98737.59;4928280;29;20040;-80
2021/01/23 04:05:10;;;;;;;13.98;9.13;;;;;;;4.49;83.71;98741.63;4917618;29;20040;-81
2021/01/23 04:07:37;;;;;;;13.75;8.80;;;;;;;4.51;83.40;98745.03;4904926;29;20049;-82
2021/01/23 04:10:05;;;;;;;15.55;8.90;;;;;;;4.48;83.61;98738.16;4916472;29;20082;-82
2021/01/23 04:12:33;;;;;;;11.70;8.27;;;;;;;4.48;83.47;98739.94;4918438;29;20058;-81
2021/01/23 04:14:59;;;;;;;12.30;9.15;;;;;;;4.41;83.80;98728.88;4918198;29;20044;-81
2021/01/23 04:17:26;;;;;;;14.77;8.95;;;;;;;4.38;83.95;98733.44;4915485;29;20094;-81
2021/01/23 04:19:53;;;;;;;11.27;7.93;;;;;;;4.34;84.24;98727.50;4919146;29;20073;-82
2021/01/23 04:22:20;;;;;;;10.60;8.65;;;;;;;4.34;83.90;98722.25;4932444;29;20056;-81
2021/01/23 04:24:46;;;;;;;9.43;8.10;;;;;;;4.33;84.07;98720.56;4928317;29;20044;-82
2021/01/23 04:27:13;;;;;;;11.70;7.95;;;;;;;4.31;84.02;98725.00;4919875;29;20058;-82
2021/01/23 04:29:39;;;;;;;10.73;8.15;;;;;;;4.30;84.01;98725.94;4930707;29;20062;-80
2021/01/23 04:32:06;;;;;;;12.68;8.70;;;;;;;4.29;83.27;98718.16;4910215;29;20120;-83
2021/01/23 04:34:32;;;;;;;13.82;8.38;;;;;;;4.29;83.72;98712.91;4910317;29;20072;-82
2021/01/23 04:36:59;;;;;;;13.93;7.90;;;;;;;4.25;84.02;98709.56;4923007;29;20059;-82
2021/01/23 04:39:25;;;;;;;11.45;7.90;;;;;;;4.22;83.90;98717.59;4921919;29;20152;-82
2021/01/23 04:41:54;;;;;;;9.70;7.70;;;;;;;4.20;84.01;98711.59;4915892;29;20058;-84
2021/01/23 04:44:25;;;;;;;12.93;8.40;;;;;;;4.17;84.56;98709.09;4921404;29;20068;-81
2021/01/23 04:46:53;;;;;;;13.40;8.15;;;;;;;4.12;84.73;98701.47;4920660;29;20449;-82
2021/01/23 04:49:19;;;;;;;10.20;7.70;;;;;;;4.11;84.65;98709.38;4921961;29;20456;-81
2021/01/23 04:51:47;;;;;;;11.40;7.38;;;;;;;4.10;84.66;98710.31;4919929;29;20052;-81
2021/01/23 04:54:35;;;;;;;11.98;7.97;;;;;;;4.14;84.84;98709.25;4919819;29;20145;-82
2021/01/23 04:57:04;;;;;;;12.48;8.10;;;;;;;4.10;84.84;98715.53;4922607;29;20057;-82
2021/01/23 04:59:32;;;;;;;12.38;8.38;;;;;;;4.07;85.29;98713.09;4901629;29;20048;-81
2021/01/23 05:02:18;;;;;;;12.05;7.95;;;;;;;4.05;85.49;98705.31;4918569;29;20060;-80
2021/01/23 05:04:58;;;;;;;13.77;9.10;;;;;;;4.07;85.26;98710.47;4919682;29;20543;-81
2021/01/23 05:07:30;;;;;;;12.32;9.00;;;;;;;4.07;85.58;98713.09;4929465;29;20060;-82
2021/01/23 05:10:12;;;;;;;14.98;9.15;;;;;;;4.06;85.18;98720.09;4915004;29;20040;-81
2021/01/23 05:12:42;;;;;;;13.00;8.18;;;;;;;4.04;85.81;98716.72;4938576;29;20055;-82
2021/01/23 05:15:22;;;;;;;13.20;9.18;;;;;;;3.99;85.76;98720.44;4932357;29;20048;-82
2021/01/23 05:17:59;;;;;;;13.38;9.00;;;;;;;3.91;85.95;98720.81;4923139;29;20112;-81
2021/01/23 05:20:32;;;;;;;15.35;9.85;;;;;;;3.91;86.28;98719.97;4925366;29;20056;-82
2021/01/23 05:23:00;;;;;;;14.80;8.60;;;;;;;3.89;87.19;98722.66;4914522;29;20052;-82
2021/01/23 05:25:28;;;;;;;13.35;8.93;;;;;;;3.91;86.78;98730.44;4902933;29;20048;-82
2021/01/23 05:27:56;;;;;;;13.50;8.25;;;;;;;3.89;86.62;98727.91;4901378;29;20075;-81
2021/01/23 05:30:23;;;;;;;9.52;7.60;;;;;;;3.92;86.58;98724.28;4919013;29;20099;-81
2021/01/23 05:33:16;;;;;;;12.75;8.02;;;;;;;3.94;86.14;98732.91;4916449;29;20084;-82
2021/01/23 05:35:54;;;;;;;10.50;7.65;;;;;;;3.88;85.79;98729.66;4912070;29;20150;-82
2021/01/23 05:38:27;;;;;;;11.00;7.70;;;;;;;3.89;85.99;98733.13;4916294;29;20053;-82
2021/01/23 05:41:09;;;;;;;11.70;8.15;;;;;;;3.87;86.38;98729.75;4906208;29;20055;-82
2021/01/23 05:43:39;;;;;;;12.50;8.23;;;;;;;3.88;85.46;98732.28;4919987;29;20500;-81
2021/01/23 05:46:12;;;;;;;12.02;7.72;;;;;;;3.84;86.23;98733.34;4928551;29;20054;-81
2021/01/23 05:48:43;;;;;;;13.13;6.97;;;;;;;3.84;86.37;98729.88;4925093;29;20052;-82
2021/01/23 05:51:11;;;;;;;10.90;7.38;;;;;;;3.79;86.30;98721.38;4912689;29;20084;-81
2021/01/23 05:53:38;;;;;;;10.57;7.75;;;;;;;3.71;86.56;98721.75;4922122;29;20056;-82
2021/01/23 05:56:06;;;;;;;11.82;7.60;;;;;;;3.66;86.65;98723.72;4902194;29;20436;-81
2021/01/23 05:58:38;;;;;;;10.93;7.72;;;;;;;3.64;86.85;98725.53;4904940;29;20052;-82
2021/01/23 06:01:16;;;;;;;11.25;7.72;;;;;;;3.58;87.16;98720.59;4921531;29;20066;-81
2021/01/23 06:03:58;;;;;;;11.77;8.15;;;;;;;3.52;87.03;98731.34;4918292;29;20148;-81
2021/01/23 06:06:24;;;;;;;11.77;7.82;;;;;;;3.41;87.81;98710.91;4903766;29;20052;-83
2021/01/23 06:08:53;;;;;;;10.05;7.43;;;;;;;3.43;87.49;98718.69;4907210;29;20567;-80
2021/01/23 06:11:20;;;;;;;12.15;8.23;;;;;;;3.44;87.86;98721.22;4921931;29;20044;-81
2021/01/23 06:13:50;;;;;;;11.77;8.30;;;;;;;3.37;87.36;98713.72;4920850;29;20067;-80
2021/01/23 06:16:31;;;;;;;11.15;8.20;;;;;;;3.38;88.21;98712.78;4923607;29;20056;-81
2021/01/23 06:19:16;;;;;;;13.38;8.68;;;;;;;3.34;87.75;98713.84;4923140;29;20054;-82
2021/01/23 06:21:43;;;;;;;11.48;8.77;;;;;;;3.36;87.70;98714.63;4922861;29;20048;-81
2021/01/23 06:24:13;;;;;;;11.82;8.25;;;;;;;3.36;87.98;98719.84;4904259;29;20083;-82
2021/01/23 06:26:54;;;;;;;12.80;8.68;;;;;;;3.34;88.56;98713.84;4938347;29;20056;-80
2021/01/23 06:29:48;;;;;;;12.95;9.63;;;;;;;3.31;88.06;98717.44;4930371;29;20036;-79
2021/01/23 06:32:14;;;;;;;15.90;9.70;;;;;;;3.28;87.99;98716.75;4925879;29;20049;-82
2021/01/23 06:34:59;;;;;;;16.17;9.98;;;;;;;3.21;88.06;98715.31;4934427;29;20067;-83
2021/01/23 06:37:37;;;;;;;14.85;9.55;;;;;;;3.21;89.18;98723.16;4928708;29;20052;-80
2021/01/23 06:40:12;;;;;;;15.27;9.95;;;;;;;3.24;88.75;98728.25;4909481;29;20099;-83
2021/01/23 06:42:47;;;;;;;15.30;9.85;;;;;;;3.20;88.77;98730.16;4923047;29;20044;-83
2021/01/23 06:45:21;;;;;;;14.38;9.65;;;;;;;3.23;89.02;98739.63;4923118;29;20078;-82
2021/01/23 06:47:54;;;;;;;18.35;10.23;;;;;;;3.18;89.17;98735.44;4920088;29;20052;-84
2021/01/23 06:50:35;;;;;;;14.50;9.32;;;;;;;3.20;89.36;98740.59;4917444;29;20059;-80
2021/01/23 06:53:04;;;;;;;16.75;10.80;;;;;;;3.21;89.61;98736.22;4923186;29;20104;-82
2021/01/23 06:55:39;;;;;;;20.58;10.90;;;;;;;3.19;89.13;98736.28;4907557;29;20061;-80
2021/01/23 06:58:35;;;;;;;16.15;10.90;;;;;;;3.12;89.09;98733.09;4928841;29;20025;-82
2021/01/23 07:01:02;;;;;;;17.75;10.93;;;;;;;3.08;89.08;98739.38;4923610;29;20060;-81
2021/01/23 07:03:31;;;;;;;17.30;11.50;;;;;;;3.08;89.56;98725.44;4926187;29;20043;-82
2021/01/23 07:06:00;;;;;;;16.35;11.05;;;;;;;3.12;89.74;98733.09;4927050;29;20051;-80
2021/01/23 07:08:37;;;;;;;18.15;10.90;;;;;;;3.11;89.10;98747.09;4934141;29;20080;-82
2021/01/23 07:11:12;;;;;;;17.65;11.15;;;;;;;3.13;89.48;98745.28;4925952;29;20067;-81
2021/01/23 07:14:02;;;;;;;18.13;12.02;;;;;;;3.12;88.88;98738.34;4936993;29;20048;-80
2021/01/23 07:16:31;;;;;;;21.38;12.77;;;;;;;3.04;89.01;98743.03;4920871;29;20107;-82
2021/01/23 07:18:59;;;;;;;21.45;12.32;;;;;;;2.99;89.54;98747.59;4915131;29;20509;-81
2021/01/23 07:21:28;;;;;;;18.60;12.80;;;;;;;2.97;89.50;98748.59;4903646;29;20068;-80
2021/01/23 07:23:56;;;;;;;19.80;12.60;;;;;;;2.92;90.04;98748.78;4920730;29;20052;-80
2021/01/23 07:26:32;;;;;;;18.17;11.95;;;;;;;2.93;89.77;98753.09;4913852;29;20052;-80
2021/01/23 07:28:59;;;;;;;19.70;12.60;;;;;;;2.94;90.17;98760.03;4915728;29;20104;-81
2021/01/23 07:31:32;;;;;;;21.80;12.05;;;;;;;3.03;90.02;98762.25;4917628;29;20552;-81
2021/01/23 07:34:07;;;;;;;20.25;12.45;;;;;;;3.09;89.66;98764.63;4899063;29;20056;-82
2021/01/23 07:36:39;;;;;;;19.23;13.02;;;;;;;3.13;89.59;98760.13;4892847;29;20064;-81
2021/01/23 07:39:11;;;;;;;20.85;13.00;;;;;;;3.12;89.57;98763.63;4893949;29;20057;-81
2021/01/23 07:41:49;;;;;;;22.08;14.27;;;;;;;3.12;89.28;98764.50;4912235;29;20075;-81
2021/01/23 07:44:16;;;;;;;20.92;13.00;;;;;;;3.14;89.51;98767.91;4905010;29;20051;-82
2021/01/23 07:46:46;;;;;;;22.15;13.57;;;;;;;3.18;88.94;98769.44;4923099;29;20052;-82
2021/01/23 07:49:26;;;;;;;24.02;14.18;;;;;;;3.26;89.06;98769.13;4928055;29;20079;-82
2021/01/23 07:52:08;;;;;;;22.10;13.20;;;;;;;3.38;88.78;98770.34;4924171;29;20055;-83
2021/01/23 07:54:51;;;;;;;19.02;12.43;;;;;;;3.49;87.68;98762.88;4927875;29;20438;-82
2021/01/23 07:57:18;;;;;;;20.80;12.48;;;;;;;3.56;87.22;98748.59;4913817;29;20051;-81
2021/01/23 07:59:49;;;;;;;21.10;12.25;;;;;;;3.59;86.94;98751.09;4914357;29;20096;-81
2021/01/23 08:02:17;;;;;;;20.23;13.20;;;;;;;3.66;86.88;98755.13;4910993;29;20382;-83
2021/01/23 08:05:02;;;;;;;22.05;13.35;;;;;;;3.64;86.96;98749.09;4916461;29;20060;-81
2021/01/23 08:07:32;;;;;;;19.75;13.05;;;;;;;3.63;86.82;98751.78;4909314;29;20085;-81
2021/01/23 08:10:07;;;;;;;26.23;12.98;;;;;;;3.63;86.97;98746.53;4926227;29;20083;-82
2021/01/23 08:13:04;;;;;;;21.13;12.13;;;;;;;3.68;86.86;98750.66;4927238;29;20051;-82
2021/01/23 08:15:36;;;;;;;19.20;12.82;;;;;;;3.78;86.62;98754.56;4906733;29;20083;-82
2021/01/23 08:18:20;;;;;;;19.65;12.20;;;;;;;3.84;87.85;98748.19;4914599;29;20047;-83
2021/01/23 08:20:47;;;;;;;19.35;11.45;;;;;;;3.88;86.32;98750.63;4916306;29;20056;-84
2021/01/23 08:23:15;;;;;;;19.65;11.65;;;;;;;3.87;85.50;98748.91;4905816;29;20050;-83
2021/01/23 08:25:44;;;;;;;19.25;11.85;;;;;;;3.93;85.74;98752.19;4925667;29;20048;-83
2021/01/23 08:28:12;;;;;;;18.98;12.38;;;;;;;3.86;85.97;98747.22;4922796;29;20104;-83
2021/01/23 08:30:39;;;;;;;19.42;12.65;;;;;;;3.83;86.07;98749.97;4923636;29;20040;-83
2021/01/23 08:33:08;;;;;;;21.02;12.38;;;;;;;3.80;86.78;98749.25;4924316;29;20059;-83
2021/01/23 08:35:37;;;;;;;21.15;13.98;;;;;;;3.77;86.56;98750.28;4928230;29;20052;-83
2021/01/23 08:38:09;;;;;;;20.88;12.73;;;;;;;3.81;86.55;98743.94;4920350;29;20071;-83
2021/01/23 08:40:36;;;;;;;21.30;13.40;;;;;;;3.92;86.55;98747.88;4929069;29;20067;-82
2021/01/23 08:43:03;;;;;;;19.30;13.23;;;;;;;4.00;86.37;98738.72;4918453;29;20062;-82
2021/01/23 08:45:32;;;;;;;20.77;13.13;;;;;;;4.06;86.65;98737.59;4931958;29;20428;-82
2021/01/23 08:47:58;;;;;;;23.00;13.32;;;;;;;4.12;86.17;98732.91;4918202;29;20072;-80
2021/01/23 08:50:25;;;;;;;21.38;14.73;;;;;;;4.11;86.37;98733.81;4930012;29;20052;-80
2021/01/23 08:52:51;;;;;;;22.95;14.63;;;;;;;4.10;86.20;98723.41;4926179;29;20060;-79
2021/01/23 08:55:18;;;;;;;24.67;14.43;;;;;;;4.13;85.76;98731.13;4921089;29;20511;-80
2021/01/23 08:57:46;;;;;;;19.42;13.70;;;;;;;4.17;86.19;98722.22;4904260;29;20059;-80
2021/01/23 09:00:14;;;;;;;21.20;14.25;;;;;;;4.13;85.94;98713.63;4904795;29;20513;-81
2021/01/23 09:02:40;;;;;;;27.02;18.30;;;;;;;4.21;85.65;98718.53;4906917;29;20525;-82
2021/01/23 09:05:10;;;;;;;20.98;13.88;;;;;;;4.25;86.48;98719.25;4901204;29;20060;-82
2021/01/23 09:07:39;;;;;;;21.58;14.10;;;;;;;4.30;85.57;98715.47;4920352;29;20077;-82
2021/01/23 09:10:10;;;;;;;22.45;14.88;;;;;;;4.26;85.08;98715.66;4912525;29;20053;-83
2021/01/23 09:12:40;;;;;;;21.63;14.05;;;;;;;4.25;85.48;98712.19;4919713;29;20110;-82
2021/01/23 09:15:08;;;;;;;25.52;14.93;;;;;;;4.32;85.62;98716.22;4916924;29;20462;-82
2021/01/23 09:17:35;;;;;;;21.83;14.02;;;;;;;4.41;85.23;98718.41;4916645;29;20169;-83
2021/01/23 09:20:03;;;;;;;20.65;13.73;;;;;;;4.50;85.25;98717.97;4901234;29;20052;-81
2021/01/23 09:22:30;;;;;;;18.90;12.68;;;;;;;4.61;84.98;98708.72;4915336;29;20044;-82
2021/01/23 09:24:56;;;;;;;18.85;12.35;;;;;;;4.67;84.32;98704.03;4900581;29;20067;-83
2021/01/23 09:27:23;;;;;;;17.08;11.38;;;;;;;4.69;83.72;98696.94;4920925;29;20412;-83
2021/01/23 09:29:49;;;;;;;18.10;11.70;;;;;;;4.74;84.10;98709.78;4906529;29;20063;-83
2021/01/23 09:32:18;;;;;;;18.40;10.80;;;;;;;4.72;83.41;98706.44;4923625;29;20095;-84
2021/01/23 09:34:47;;;;;;;;;;;;;;;4.73;83.04;98714.19;4924024;29;20060;-83
2021/01/23 09:37:14;;;;;;;17.98;11.25;;;;;;;4.64;82.87;98714.66;4924067;29;19923;-85
2021/01/23 09:39:40;;;;;;;17.77;11.95;;;;;;;4.57;83.26;98711.47;4916222;29;20035;-84
2021/01/23 09:42:07;;;;;;;18.52;11.18;;;;;;;4.61;83.88;98717.44;4902696;29;20354;-86
2021/01/23 09:44:35;;;;;;;15.98;12.02;;;;;;;4.64;82.91;98717.28;4912860;29;20064;-83
2021/01/23 09:47:02;;;;;;;16.02;10.80;;;;;;;4.64;82.87;98719.91;4930017;29;20313;-83
2021/01/23 09:49:29;;;;;;;15.57;10.77;;;;;;;4.65;82.98;98712.88;4919732;29;20063;-83
2021/01/23 09:51:56;;;;;;;15.15;9.95;;;;;;;4.64;82.31;98719.91;4914943;29;20048;-83
2021/01/23 09:54:22;;;;;;;12.80;9.57;;;;;;;4.61;82.99;98708.72;4915052;29;20052;-82
2021/01/23 09:57:06;;;;;;;17.23;10.50;;;;;;;4.66;82.94;98707.56;4915881;29;20060;-81
2021/01/23 09:59:32;;;;;;;16.08;9.80;;;;;;;4.70;82.86;98708.28;4920868;29;20267;-80
2021/01/23 10:02:00;;;;;;;14.52;9.75;;;;;;;4.70;83.04;98703.03;4904812;29;20051;-82
2021/01/23 10:04:27;;;;;;;15.80;10.57;;;;;;;4.72;82.60;98703.81;4903064;29;20115;-82
2021/01/23 10:06:55;;;;;;;18.95;11.52;;;;;;;4.59;82.32;98693.91;4902745;29;20076;-83
2021/01/23 10:09:22;;;;;;;15.13;10.90;;;;;;;4.54;83.75;98688.06;4902002;29;20179;-84
2021/01/23 10:11:49;;;;;;;16.67;12.13;;;;;;;4.56;83.47;98688.81;4917735;29;20144;-82
2021/01/23 10:14:17;;;;;;;21.75;12.98;;;;;;;4.59;83.57;98687.81;4901668;29;20066;-87
2021/01/23 10:16:44;;;;;;;19.75;12.73;;;;;;;4.55;83.59;98696.78;4900809;29;20060;-86
2021/01/23 10:19:10;;;;;;;22.80;12.77;;;;;;;4.58;85.42;98686.13;4906154;29;20098;-88
2021/01/23 10:21:39;;;;;;;20.38;13.38;;;;;;;4.62;84.67;98678.94;4934216;29;20090;-81
2021/01/23 10:24:06;;;;;;;22.38;13.75;;;;;;;4.68;84.27;98686.53;4931077;29;20079;-83
2021/01/23 10:26:33;;;;;;;19.80;14.07;;;;;;;4.64;84.40;98677.09;4929436;29;20064;-83
2021/01/23 10:29:00;;;;;;;21.08;13.43;;;;;;;4.61;84.04;98672.00;4933598;29;20631;-84
2021/01/23 10:31:27;;;;;;;20.73;14.05;;;;;;;4.64;84.34;98677.09;4926224;29;20059;-81
2021/01/23 10:33:54;;;;;;;22.17;14.52;;;;;;;4.61;84.43;98672.84;4934409;28;20048;-81
2021/01/23 10:36:21;;;;;;;21.73;14.32;;;;;;;4.65;84.06;98670.94;4926277;29;20044;-81
2021/01/23 10:38:49;;;;;;;20.42;14.35;;;;;;;4.67;83.99;98674.34;4924402;29;20047;-82
2021/01/23 10:41:15;;;;;;;21.80;14.80;;;;;;;4.63;84.58;98671.00;4932842;29;20090;-82
2021/01/23 10:43:42;;;;;;;23.85;13.88;;;;;;;4.56;84.90;98675.69;4937494;29;20072;-82
2021/01/23 10:46:08;;;;;;;21.17;14.32;;;;;;;4.56;84.79;98669.66;4934573;29;20498;-80
2021/01/23 10:48:36;;;;;;;24.45;14.80;;;;;;;4.54;84.83;98661.84;4933807;29;20111;-82
2021/01/23 10:51:04;;;;;;;22.88;14.60;;;;;;;4.55;86.05;98666.16;4928503;29;20055;-83
2021/01/23 10:53:34;;;;;;;23.45;15.45;;;;;;;4.55;85.53;98654.84;4917475;29;20818;-81
2021/01/23 10:56:00;;;;;;;19.83;13.68;;;;;;;4.59;85.50;98653.72;4916764;29;20048;-84
2021/01/23 10:58:27;;;;;;;22.10;14.15;;;;;;;4.61;86.03;98645.78;4935234;29;20063;-82
2021/01/23 11:00:57;;;;;;;23.95;14.88;;;;;;;4.59;85.77;98643.25;4935575;29;20107;-83
2021/01/23 11:03:24;;;;;;;23.90;14.85;;;;;;;4.58;85.73;98642.41;4919998;29;20048;-84
2021/01/23 11:05:51;;;;;;;26.75;15.07;;;;;;;4.70;86.26;98643.56;4925334;29;20072;-80
2021/01/23 11:08:18;;;;;;;21.30;14.70;;;;;;;4.68;85.69;98632.31;4926839;29;20048;-81
2021/01/23 11:10:44;;;;;;;22.77;15.13;;;;;;;4.75;86.14;98635.44;4924311;29;20050;-80
2021/01/23 11:13:11;;;;;;;24.25;15.07;;;;;;;4.76;85.59;98634.53;4924468;29;20052;-82
2021/01/23 11:15:39;;;;;;;21.73;14.20;;;;;;;4.80;85.90;98625.59;4931017;29;20048;-81
2021/01/23 11:18:06;;;;;;;22.20;14.80;;;;;;;4.80;85.63;98628.19;4932922;29;20071;-81
2021/01/23 11:20:32;;;;;;;22.63;14.88;;;;;;;4.73;85.61;98617.16;4906867;29;20057;-84
2021/01/23 11:22:59;;;;;;;23.92;16.10;;;;;;;4.68;85.60;98620.97;4908123;29;20060;-84
2021/01/23 11:25:27;;;;;;;22.42;14.57;;;;;;;4.64;85.90;98619.44;4901454;29;20052;-84
2021/01/23 11:27:55;;;;;;;22.65;14.63;;;;;;;4.64;86.27;98614.19;4902479;29;20064;-83
2021/01/23 11:30:25;;;;;;;22.00;14.60;;;;;;;4.66;86.15;98605.31;4904311;29;20059;-83
2021/01/23 11:32:52;;;;;;;22.45;15.23;;;;;;;4.76;86.40;98613.56;4919100;29;20067;-84
2021/01/23 11:35:20;;;;;;;24.08;15.32;;;;;;;4.82;86.11;98602.75;4923316;29;20048;-83
2021/01/23 11:37:49;;;;;;;22.98;15.32;;;;;;;4.88;85.63;98605.03;4930702;29;20034;-84
2021/01/23 11:40:16;;;;;;;23.52;14.45;;;;;;;4.93;85.25;98597.78;4932847;29;20044;-86
2021/01/23 11:42:42;;;;;;;21.58;15.10;;;;;;;4.88;84.78;98581.44;4931963;29;20112;-83
2021/01/23 11:45:10;;;;;;;20.63;13.55;;;;;;;4.93;85.26;98580.28;4932384;29;20054;-84